Tropical Cyclones
[Index]
Main Index Home Page Stock Weather Photos Extreme Storms Discussion Storm News and Storm Chasing Reports Tropical Cyclones / Hurricanes / Typhoons Weather Data and Links Wild Fires / Bushfires Weather Observation Techniques Weather Picture Catalogue Tornado Pictures and Reports Stock Video Footage and DVDs for sale
Season 1991-1992 Tropical Cyclone INNIS Track Map
Season 1991-1992 Summaries: [BoM-AU] [JTWC-AU] [JTWC-SIO] [JTWC-SPAC] [JTWC-SH]
<<- Previous TC | JTWC 1991-1992 Season | Next TC ->>

click for intensity scale information  Lat/long Grid: Show Hide

 Date Labels: Show Hide

Joint Typhoon Warning Centre Cyclone Data

Name: INNIS

27 Apr 1992 06:00 UTC to 02 May 1992 12:00 UTC

    date/time    lat    long     hPa   cat  kts
1992-04-27 06   10.3   178.8                  20          
1992-04-27 12   10.4   177.6                  20          
1992-04-27 18   10.6   176.4                  20          
1992-04-28 00   10.7   175.2                  25          
1992-04-28 06   10.8   174.3                  25          
1992-04-28 12   11.0   173.3                  25          
1992-04-28 18   11.3   172.2                  35          
1992-04-29 00   11.8   171.4            1     45          
1992-04-29 06   12.4   170.6            1     50          
1992-04-29 12   12.9   170.0            2     60          
1992-04-29 18   13.4   169.5            2     65          
1992-04-30 00   14.0   169.1            2     65          
1992-04-30 06   14.6   168.8            2     60          
1992-04-30 12   15.2   168.5            2     55          
1992-04-30 18   16.0   168.4            1     50          
1992-05-01 00   16.8   169.2            1     45          
1992-05-01 06   17.8   170.3            1     40          
1992-05-01 12   19.0   172.0            1     40          
1992-05-01 18   20.5   173.8                  35          
1992-05-02 00   22.1   175.9                  35          
1992-05-02 06   23.9   178.2                  35          
1992-05-02 12   25.8   179.3W                 35          
Winds are 1-min average.

Tropical cyclone tracks developed by Michael Bath using data from the Joint Typhoon Warning Centre Best Tracks and Google Maps.


[Australian Severe Weather index] [Copyright Notice] [Email Contacts] [Search This Site] [Privacy Policy]
Document: tropical_cyclone_innis.htm Updated: 18 September 2016